sensor_id;sensor_type;location;lat;lon;timestamp;P1;durP1;ratioP1;P2;durP2;ratioP2
8279;SDS011;8335;42.646;23.380;2024-03-22T00:01:41;8.53;;;4.90;;
8279;SDS011;8335;42.646;23.380;2024-03-22T00:04:09;9.07;;;5.07;;
8279;SDS011;8335;42.646;23.380;2024-03-22T00:06:35;10.63;;;5.70;;
8279;SDS011;8335;42.646;23.380;2024-03-22T00:09:02;8.80;;;5.03;;
8279;SDS011;8335;42.646;23.380;2024-03-22T00:11:27;10.43;;;5.13;;
8279;SDS011;8335;42.646;23.380;2024-03-22T00:13:54;9.20;;;5.33;;
8279;SDS011;8335;42.646;23.380;2024-03-22T00:16:20;9.43;;;5.77;;
8279;SDS011;8335;42.646;23.380;2024-03-22T00:18:54;8.97;;;5.00;;
8279;SDS011;8335;42.646;23.380;2024-03-22T00:21:21;10.37;;;4.93;;
8279;SDS011;8335;42.646;23.380;2024-03-22T00:23:47;9.80;;;5.20;;
8279;SDS011;8335;42.646;23.380;2024-03-22T00:26:13;9.10;;;5.10;;
8279;SDS011;8335;42.646;23.380;2024-03-22T00:28:39;9.07;;;5.03;;
8279;SDS011;8335;42.646;23.380;2024-03-22T00:31:06;9.43;;;4.90;;
8279;SDS011;8335;42.646;23.380;2024-03-22T00:33:32;8.53;;;5.33;;
8279;SDS011;8335;42.646;23.380;2024-03-22T00:36:00;8.63;;;5.40;;
8279;SDS011;8335;42.646;23.380;2024-03-22T00:38:26;6.90;;;4.47;;
8279;SDS011;8335;42.646;23.380;2024-03-22T00:40:54;7.87;;;5.00;;
8279;SDS011;8335;42.646;23.380;2024-03-22T00:43:20;7.87;;;4.67;;
8279;SDS011;8335;42.646;23.380;2024-03-22T00:45:47;7.47;;;4.50;;
8279;SDS011;8335;42.646;23.380;2024-03-22T00:48:13;7.40;;;4.70;;
8279;SDS011;8335;42.646;23.380;2024-03-22T00:50:40;8.47;;;5.00;;
8279;SDS011;8335;42.646;23.380;2024-03-22T00:53:07;8.60;;;5.87;;
8279;SDS011;8335;42.646;23.380;2024-03-22T00:55:35;9.47;;;5.53;;
8279;SDS011;8335;42.646;23.380;2024-03-22T00:58:01;12.03;;;5.43;;
8279;SDS011;8335;42.646;23.380;2024-03-22T01:00:27;9.03;;;5.80;;
8279;SDS011;8335;42.646;23.380;2024-03-22T01:02:53;10.00;;;6.03;;
8279;SDS011;8335;42.646;23.380;2024-03-22T01:05:20;13.23;;;6.57;;
8279;SDS011;8335;42.646;23.380;2024-03-22T01:07:45;9.13;;;6.37;;
8279;SDS011;8335;42.646;23.380;2024-03-22T01:10:13;13.00;;;6.80;;
8279;SDS011;8335;42.646;23.380;2024-03-22T01:12:39;10.37;;;6.47;;
8279;SDS011;8335;42.646;23.380;2024-03-22T01:15:07;12.93;;;6.03;;
8279;SDS011;8335;42.646;23.380;2024-03-22T01:17:34;10.33;;;6.10;;
8279;SDS011;8335;42.646;23.380;2024-03-22T01:20:00;9.90;;;6.23;;
8279;SDS011;8335;42.646;23.380;2024-03-22T01:22:26;12.10;;;6.77;;
8279;SDS011;8335;42.646;23.380;2024-03-22T01:24:53;10.63;;;7.00;;
8279;SDS011;8335;42.646;23.380;2024-03-22T01:27:20;14.23;;;7.17;;
8279;SDS011;8335;42.646;23.380;2024-03-22T01:29:46;13.43;;;7.63;;
8279;SDS011;8335;42.646;23.380;2024-03-22T01:32:12;12.17;;;7.30;;
8279;SDS011;8335;42.646;23.380;2024-03-22T01:34:39;12.80;;;7.70;;
8279;SDS011;8335;42.646;23.380;2024-03-22T01:37:04;13.43;;;7.83;;
8279;SDS011;8335;42.646;23.380;2024-03-22T01:39:31;12.33;;;7.40;;
8279;SDS011;8335;42.646;23.380;2024-03-22T01:41:57;11.97;;;7.63;;
8279;SDS011;8335;42.646;23.380;2024-03-22T01:44:28;12.83;;;7.07;;
8279;SDS011;8335;42.646;23.380;2024-03-22T01:46:56;12.20;;;7.40;;
8279;SDS011;8335;42.646;23.380;2024-03-22T01:49:22;11.70;;;6.97;;
8279;SDS011;8335;42.646;23.380;2024-03-22T01:51:50;14.23;;;7.30;;
8279;SDS011;8335;42.646;23.380;2024-03-22T01:54:16;10.27;;;6.93;;
8279;SDS011;8335;42.646;23.380;2024-03-22T01:56:42;10.43;;;6.40;;
8279;SDS011;8335;42.646;23.380;2024-03-22T01:59:09;12.57;;;6.57;;
8279;SDS011;8335;42.646;23.380;2024-03-22T02:01:36;12.33;;;6.93;;
8279;SDS011;8335;42.646;23.380;2024-03-22T02:04:03;10.83;;;6.30;;
8279;SDS011;8335;42.646;23.380;2024-03-22T02:06:28;11.00;;;6.77;;
8279;SDS011;8335;42.646;23.380;2024-03-22T02:08:56;11.83;;;6.80;;
8279;SDS011;8335;42.646;23.380;2024-03-22T02:11:22;14.70;;;6.90;;
8279;SDS011;8335;42.646;23.380;2024-03-22T02:13:49;11.20;;;6.57;;
8279;SDS011;8335;42.646;23.380;2024-03-22T02:16:14;13.67;;;7.53;;
8279;SDS011;8335;42.646;23.380;2024-03-22T02:18:43;14.23;;;7.10;;
8279;SDS011;8335;42.646;23.380;2024-03-22T02:21:09;13.27;;;7.03;;
8279;SDS011;8335;42.646;23.380;2024-03-22T02:23:38;13.00;;;7.50;;
8279;SDS011;8335;42.646;23.380;2024-03-22T02:26:04;12.43;;;6.77;;
8279;SDS011;8335;42.646;23.380;2024-03-22T02:28:31;8.17;;;5.77;;
8279;SDS011;8335;42.646;23.380;2024-03-22T02:30:58;9.80;;;6.47;;
8279;SDS011;8335;42.646;23.380;2024-03-22T02:33:25;11.03;;;6.97;;
8279;SDS011;8335;42.646;23.380;2024-03-22T02:35:51;12.80;;;6.60;;
8279;SDS011;8335;42.646;23.380;2024-03-22T02:38:18;11.07;;;6.40;;
8279;SDS011;8335;42.646;23.380;2024-03-22T02:40:46;10.90;;;6.37;;
8279;SDS011;8335;42.646;23.380;2024-03-22T02:43:14;11.80;;;6.47;;
8279;SDS011;8335;42.646;23.380;2024-03-22T02:45:40;11.83;;;6.27;;
8279;SDS011;8335;42.646;23.380;2024-03-22T02:48:07;12.30;;;6.07;;
8279;SDS011;8335;42.646;23.380;2024-03-22T02:50:32;14.53;;;6.93;;
8279;SDS011;8335;42.646;23.380;2024-03-22T02:52:59;11.37;;;6.70;;
8279;SDS011;8335;42.646;23.380;2024-03-22T02:55:25;10.40;;;6.17;;
8279;SDS011;8335;42.646;23.380;2024-03-22T02:57:53;11.40;;;6.57;;
8279;SDS011;8335;42.646;23.380;2024-03-22T03:00:19;8.10;;;5.27;;
8279;SDS011;8335;42.646;23.380;2024-03-22T03:02:46;13.00;;;5.67;;
8279;SDS011;8335;42.646;23.380;2024-03-22T03:05:11;11.47;;;6.23;;
8279;SDS011;8335;42.646;23.380;2024-03-22T03:07:38;12.00;;;6.20;;
8279;SDS011;8335;42.646;23.380;2024-03-22T03:10:04;9.03;;;5.80;;
8279;SDS011;8335;42.646;23.380;2024-03-22T03:12:31;10.60;;;6.97;;
8279;SDS011;8335;42.646;23.380;2024-03-22T03:14:58;11.73;;;6.30;;
8279;SDS011;8335;42.646;23.380;2024-03-22T03:17:25;12.40;;;6.20;;
8279;SDS011;8335;42.646;23.380;2024-03-22T03:19:51;13.77;;;6.17;;
8279;SDS011;8335;42.646;23.380;2024-03-22T03:22:17;10.50;;;6.43;;
8279;SDS011;8335;42.646;23.380;2024-03-22T03:24:43;9.17;;;5.73;;
8279;SDS011;8335;42.646;23.380;2024-03-22T03:27:10;9.37;;;6.03;;
8279;SDS011;8335;42.646;23.380;2024-03-22T03:29:36;9.63;;;5.93;;
8279;SDS011;8335;42.646;23.380;2024-03-22T03:32:04;10.07;;;6.10;;
8279;SDS011;8335;42.646;23.380;2024-03-22T03:34:30;11.50;;;6.43;;
8279;SDS011;8335;42.646;23.380;2024-03-22T03:36:56;12.43;;;6.67;;
8279;SDS011;8335;42.646;23.380;2024-03-22T03:39:25;10.80;;;6.53;;
8279;SDS011;8335;42.646;23.380;2024-03-22T03:41:52;12.00;;;7.60;;
8279;SDS011;8335;42.646;23.380;2024-03-22T03:44:18;13.67;;;8.17;;
8279;SDS011;8335;42.646;23.380;2024-03-22T03:46:44;13.40;;;8.00;;
8279;SDS011;8335;42.646;23.380;2024-03-22T03:49:11;12.77;;;7.47;;
8279;SDS011;8335;42.646;23.380;2024-03-22T03:51:38;16.20;;;9.37;;
8279;SDS011;8335;42.646;23.380;2024-03-22T03:54:04;14.33;;;7.60;;
8279;SDS011;8335;42.646;23.380;2024-03-22T03:56:30;13.77;;;7.40;;
8279;SDS011;8335;42.646;23.380;2024-03-22T03:58:56;16.13;;;8.07;;
8279;SDS011;8335;42.646;23.380;2024-03-22T04:01:23;12.43;;;6.90;;
8279;SDS011;8335;42.646;23.380;2024-03-22T04:03:49;11.33;;;6.70;;
8279;SDS011;8335;42.646;23.380;2024-03-22T04:06:17;16.43;;;6.87;;
8279;SDS011;8335;42.646;23.380;2024-03-22T04:08:43;9.97;;;6.47;;
8279;SDS011;8335;42.646;23.380;2024-03-22T04:11:10;12.50;;;6.70;;
8279;SDS011;8335;42.646;23.380;2024-03-22T04:13:36;13.37;;;7.80;;
8279;SDS011;8335;42.646;23.380;2024-03-22T04:16:03;11.70;;;6.73;;
8279;SDS011;8335;42.646;23.380;2024-03-22T04:18:30;11.63;;;6.60;;
8279;SDS011;8335;42.646;23.380;2024-03-22T04:20:57;10.27;;;6.60;;
8279;SDS011;8335;42.646;23.380;2024-03-22T04:23:25;9.17;;;5.90;;
8279;SDS011;8335;42.646;23.380;2024-03-22T04:25:53;8.37;;;5.60;;
8279;SDS011;8335;42.646;23.380;2024-03-22T04:28:19;10.40;;;5.93;;
8279;SDS011;8335;42.646;23.380;2024-03-22T04:30:53;7.13;;;5.10;;
8279;SDS011;8335;42.646;23.380;2024-03-22T04:33:20;9.03;;;5.80;;
8279;SDS011;8335;42.646;23.380;2024-03-22T04:35:46;8.57;;;5.60;;
8279;SDS011;8335;42.646;23.380;2024-03-22T04:38:12;12.53;;;6.20;;
8279;SDS011;8335;42.646;23.380;2024-03-22T04:40:40;10.97;;;6.63;;
8279;SDS011;8335;42.646;23.380;2024-03-22T04:43:07;14.17;;;6.43;;
8279;SDS011;8335;42.646;23.380;2024-03-22T04:45:33;9.77;;;6.33;;
8279;SDS011;8335;42.646;23.380;2024-03-22T04:48:00;12.83;;;6.80;;
8279;SDS011;8335;42.646;23.380;2024-03-22T04:50:27;11.03;;;6.53;;
8279;SDS011;8335;42.646;23.380;2024-03-22T04:52:54;11.50;;;6.20;;
8279;SDS011;8335;42.646;23.380;2024-03-22T04:55:20;11.07;;;5.93;;
8279;SDS011;8335;42.646;23.380;2024-03-22T04:57:48;17.70;;;7.10;;
8279;SDS011;8335;42.646;23.380;2024-03-22T05:00:14;12.73;;;6.57;;
8279;SDS011;8335;42.646;23.380;2024-03-22T05:02:41;10.70;;;6.93;;
8279;SDS011;8335;42.646;23.380;2024-03-22T05:05:07;15.67;;;7.30;;
8279;SDS011;8335;42.646;23.380;2024-03-22T05:07:34;11.43;;;6.80;;
8279;SDS011;8335;42.646;23.380;2024-03-22T05:10:01;14.00;;;6.90;;
8279;SDS011;8335;42.646;23.380;2024-03-22T05:12:29;11.90;;;6.60;;
8279;SDS011;8335;42.646;23.380;2024-03-22T05:14:56;13.17;;;6.47;;
8279;SDS011;8335;42.646;23.380;2024-03-22T05:17:22;12.40;;;7.10;;
8279;SDS011;8335;42.646;23.380;2024-03-22T05:19:48;10.20;;;6.90;;
8279;SDS011;8335;42.646;23.380;2024-03-22T05:22:15;13.30;;;6.63;;
8279;SDS011;8335;42.646;23.380;2024-03-22T05:24:40;13.10;;;6.43;;
8279;SDS011;8335;42.646;23.380;2024-03-22T05:27:07;11.87;;;6.70;;
8279;SDS011;8335;42.646;23.380;2024-03-22T05:29:33;18.37;;;6.70;;
8279;SDS011;8335;42.646;23.380;2024-03-22T05:32:01;10.17;;;6.13;;
8279;SDS011;8335;42.646;23.380;2024-03-22T05:34:28;12.00;;;7.10;;
8279;SDS011;8335;42.646;23.380;2024-03-22T05:36:55;17.63;;;7.37;;
8279;SDS011;8335;42.646;23.380;2024-03-22T05:39:21;13.40;;;7.17;;
8279;SDS011;8335;42.646;23.380;2024-03-22T05:41:47;10.53;;;6.13;;
8279;SDS011;8335;42.646;23.380;2024-03-22T05:44:13;13.93;;;6.80;;
8279;SDS011;8335;42.646;23.380;2024-03-22T05:46:40;14.43;;;7.97;;
8279;SDS011;8335;42.646;23.380;2024-03-22T05:49:07;9.80;;;6.80;;
8279;SDS011;8335;42.646;23.380;2024-03-22T05:51:33;11.87;;;6.60;;
8279;SDS011;8335;42.646;23.380;2024-03-22T05:53:59;12.43;;;6.57;;
8279;SDS011;8335;42.646;23.380;2024-03-22T05:56:26;10.87;;;6.80;;
8279;SDS011;8335;42.646;23.380;2024-03-22T05:58:51;13.80;;;7.23;;
8279;SDS011;8335;42.646;23.380;2024-03-22T06:01:19;13.93;;;6.97;;
8279;SDS011;8335;42.646;23.380;2024-03-22T06:03:44;11.70;;;6.27;;
8279;SDS011;8335;42.646;23.380;2024-03-22T06:06:13;13.17;;;6.80;;
8279;SDS011;8335;42.646;23.380;2024-03-22T06:08:38;11.70;;;6.60;;
8279;SDS011;8335;42.646;23.380;2024-03-22T06:11:08;12.97;;;6.83;;
8279;SDS011;8335;42.646;23.380;2024-03-22T06:13:34;15.57;;;6.10;;
8279;SDS011;8335;42.646;23.380;2024-03-22T06:16:01;9.67;;;5.77;;
8279;SDS011;8335;42.646;23.380;2024-03-22T06:18:27;12.07;;;6.83;;
8279;SDS011;8335;42.646;23.380;2024-03-22T06:20:53;9.97;;;6.23;;
8279;SDS011;8335;42.646;23.380;2024-03-22T06:23:21;9.67;;;6.33;;
8279;SDS011;8335;42.646;23.380;2024-03-22T06:25:51;11.43;;;6.03;;
8279;SDS011;8335;42.646;23.380;2024-03-22T06:28:17;15.90;;;6.57;;
8279;SDS011;8335;42.646;23.380;2024-03-22T06:30:44;10.65;;;6.10;;
8279;SDS011;8335;42.646;23.380;2024-03-22T06:33:10;9.75;;;6.50;;
8279;SDS011;8335;42.646;23.380;2024-03-22T06:35:37;11.02;;;6.30;;
8279;SDS011;8335;42.646;23.380;2024-03-22T06:38:02;12.02;;;6.30;;
8279;SDS011;8335;42.646;23.380;2024-03-22T06:40:31;12.88;;;6.43;;
8279;SDS011;8335;42.646;23.380;2024-03-22T06:42:57;9.65;;;5.95;;
8279;SDS011;8335;42.646;23.380;2024-03-22T06:45:24;9.82;;;6.05;;
8279;SDS011;8335;42.646;23.380;2024-03-22T06:47:50;9.95;;;5.85;;
8279;SDS011;8335;42.646;23.380;2024-03-22T06:50:17;11.32;;;6.40;;
8279;SDS011;8335;42.646;23.380;2024-03-22T06:52:43;10.43;;;6.28;;
8279;SDS011;8335;42.646;23.380;2024-03-22T06:55:09;11.88;;;6.82;;
8279;SDS011;8335;42.646;23.380;2024-03-22T06:57:37;11.30;;;6.80;;
8279;SDS011;8335;42.646;23.380;2024-03-22T07:00:04;9.15;;;6.90;;
8279;SDS011;8335;42.646;23.380;2024-03-22T07:02:31;14.82;;;7.18;;
8279;SDS011;8335;42.646;23.380;2024-03-22T07:04:58;28.33;;;8.05;;
8279;SDS011;8335;42.646;23.380;2024-03-22T07:07:26;16.20;;;7.57;;
8279;SDS011;8335;42.646;23.380;2024-03-22T07:09:53;14.48;;;7.53;;
8279;SDS011;8335;42.646;23.380;2024-03-22T07:12:19;13.82;;;8.00;;
8279;SDS011;8335;42.646;23.380;2024-03-22T07:14:47;13.68;;;7.53;;
8279;SDS011;8335;42.646;23.380;2024-03-22T07:17:13;12.73;;;7.20;;
8279;SDS011;8335;42.646;23.380;2024-03-22T07:19:40;20.55;;;8.07;;
8279;SDS011;8335;42.646;23.380;2024-03-22T07:22:06;15.38;;;8.55;;
8279;SDS011;8335;42.646;23.380;2024-03-22T07:24:33;13.38;;;8.35;;
8279;SDS011;8335;42.646;23.380;2024-03-22T07:26:58;15.23;;;8.20;;
8279;SDS011;8335;42.646;23.380;2024-03-22T07:29:25;20.60;;;10.02;;
8279;SDS011;8335;42.646;23.380;2024-03-22T07:31:52;8.75;;;6.72;;
8279;SDS011;8335;42.646;23.380;2024-03-22T07:34:19;11.13;;;6.35;;
8279;SDS011;8335;42.646;23.380;2024-03-22T07:36:44;7.03;;;5.00;;
8279;SDS011;8335;42.646;23.380;2024-03-22T07:39:11;14.18;;;7.78;;
8279;SDS011;8335;42.646;23.380;2024-03-22T07:41:37;11.95;;;7.30;;
8279;SDS011;8335;42.646;23.380;2024-03-22T07:44:03;20.10;;;7.85;;
8279;SDS011;8335;42.646;23.380;2024-03-22T07:46:30;11.40;;;7.15;;
8279;SDS011;8335;42.646;23.380;2024-03-22T07:48:58;23.90;;;8.02;;
8279;SDS011;8335;42.646;23.380;2024-03-22T07:51:24;12.27;;;6.22;;
8279;SDS011;8335;42.646;23.380;2024-03-22T07:53:51;17.73;;;7.25;;
8279;SDS011;8335;42.646;23.380;2024-03-22T07:56:17;10.77;;;5.63;;
8279;SDS011;8335;42.646;23.380;2024-03-22T07:58:44;7.20;;;4.28;;
8279;SDS011;8335;42.646;23.380;2024-03-22T08:01:09;4.78;;;3.75;;
8279;SDS011;8335;42.646;23.380;2024-03-22T08:03:36;5.93;;;4.40;;
8279;SDS011;8335;42.646;23.380;2024-03-22T08:06:03;26.77;;;5.93;;
8279;SDS011;8335;42.646;23.380;2024-03-22T08:08:30;5.93;;;3.63;;
8279;SDS011;8335;42.646;23.380;2024-03-22T08:10:56;6.93;;;4.53;;
8279;SDS011;8335;42.646;23.380;2024-03-22T08:13:23;6.95;;;3.80;;
8279;SDS011;8335;42.646;23.380;2024-03-22T08:15:48;5.18;;;4.03;;
8279;SDS011;8335;42.646;23.380;2024-03-22T08:18:15;7.13;;;4.00;;
8279;SDS011;8335;42.646;23.380;2024-03-22T08:20:41;6.15;;;4.18;;
8279;SDS011;8335;42.646;23.380;2024-03-22T08:23:09;4.70;;;3.95;;
8279;SDS011;8335;42.646;23.380;2024-03-22T08:25:35;5.50;;;4.22;;
8279;SDS011;8335;42.646;23.380;2024-03-22T08:28:03;5.97;;;4.13;;
8279;SDS011;8335;42.646;23.380;2024-03-22T08:30:29;5.97;;;4.10;;
8279;SDS011;8335;42.646;23.380;2024-03-22T08:32:55;5.35;;;3.92;;
8279;SDS011;8335;42.646;23.380;2024-03-22T08:35:21;13.30;;;4.68;;
8279;SDS011;8335;42.646;23.380;2024-03-22T08:37:48;5.32;;;3.88;;
8279;SDS011;8335;42.646;23.380;2024-03-22T08:40:15;4.90;;;4.00;;
8279;SDS011;8335;42.646;23.380;2024-03-22T08:42:42;6.60;;;4.13;;
8279;SDS011;8335;42.646;23.380;2024-03-22T08:45:08;5.03;;;3.90;;
8279;SDS011;8335;42.646;23.380;2024-03-22T08:47:35;5.05;;;3.85;;
8279;SDS011;8335;42.646;23.380;2024-03-22T08:50:00;8.63;;;4.30;;
8279;SDS011;8335;42.646;23.380;2024-03-22T08:52:27;5.97;;;4.30;;
8279;SDS011;8335;42.646;23.380;2024-03-22T08:54:53;5.65;;;4.10;;
8279;SDS011;8335;42.646;23.380;2024-03-22T08:57:21;7.70;;;4.15;;
8279;SDS011;8335;42.646;23.380;2024-03-22T08:59:47;6.07;;;4.22;;
8279;SDS011;8335;42.646;23.380;2024-03-22T09:02:14;8.40;;;4.57;;
8279;SDS011;8335;42.646;23.380;2024-03-22T09:04:39;6.93;;;4.15;;
8279;SDS011;8335;42.646;23.380;2024-03-22T09:07:06;6.65;;;3.97;;
8279;SDS011;8335;42.646;23.380;2024-03-22T09:09:32;4.55;;;3.22;;
8279;SDS011;8335;42.646;23.380;2024-03-22T09:11:59;7.55;;;3.60;;
8279;SDS011;8335;42.646;23.380;2024-03-22T09:14:26;8.38;;;4.32;;
8279;SDS011;8335;42.646;23.380;2024-03-22T09:16:53;6.32;;;3.58;;
8279;SDS011;8335;42.646;23.380;2024-03-22T09:19:18;10.07;;;4.10;;
8279;SDS011;8335;42.646;23.380;2024-03-22T09:21:45;6.13;;;4.13;;
8279;SDS011;8335;42.646;23.380;2024-03-22T09:24:11;6.70;;;4.18;;
8279;SDS011;8335;42.646;23.380;2024-03-22T09:26:37;11.25;;;4.18;;
8279;SDS011;8335;42.646;23.380;2024-03-22T09:29:03;5.45;;;3.70;;
8279;SDS011;8335;42.646;23.380;2024-03-22T09:31:31;19.80;;;5.10;;
8279;SDS011;8335;42.646;23.380;2024-03-22T09:33:58;5.45;;;3.65;;
8279;SDS011;8335;42.646;23.380;2024-03-22T09:36:25;32.05;;;6.28;;
8279;SDS011;8335;42.646;23.380;2024-03-22T09:38:50;6.47;;;3.30;;
8279;SDS011;8335;42.646;23.380;2024-03-22T09:41:18;9.18;;;3.90;;
8279;SDS011;8335;42.646;23.380;2024-03-22T09:43:49;5.35;;;4.00;;
8279;SDS011;8335;42.646;23.380;2024-03-22T09:46:18;5.78;;;3.53;;
8279;SDS011;8335;42.646;23.380;2024-03-22T09:48:46;5.50;;;3.55;;
8279;SDS011;8335;42.646;23.380;2024-03-22T09:51:14;5.28;;;4.05;;
8279;SDS011;8335;42.646;23.380;2024-03-22T09:53:42;4.60;;;3.63;;
8279;SDS011;8335;42.646;23.380;2024-03-22T09:56:10;6.68;;;3.60;;
8279;SDS011;8335;42.646;23.380;2024-03-22T09:58:39;5.20;;;3.25;;
8279;SDS011;8335;42.646;23.380;2024-03-22T10:01:07;4.32;;;3.65;;
8279;SDS011;8335;42.646;23.380;2024-03-22T10:03:32;13.40;;;3.85;;
8279;SDS011;8335;42.646;23.380;2024-03-22T10:06:01;4.22;;;3.33;;
8279;SDS011;8335;42.646;23.380;2024-03-22T10:08:26;6.70;;;3.63;;
8279;SDS011;8335;42.646;23.380;2024-03-22T10:10:53;6.78;;;4.15;;
8279;SDS011;8335;42.646;23.380;2024-03-22T10:13:19;4.45;;;3.50;;
8279;SDS011;8335;42.646;23.380;2024-03-22T10:15:45;7.25;;;4.22;;
8279;SDS011;8335;42.646;23.380;2024-03-22T10:18:11;6.25;;;3.85;;
8279;SDS011;8335;42.646;23.380;2024-03-22T10:20:39;6.80;;;4.00;;
8279;SDS011;8335;42.646;23.380;2024-03-22T10:23:07;5.80;;;3.90;;
8279;SDS011;8335;42.646;23.380;2024-03-22T10:25:35;5.43;;;3.92;;
8279;SDS011;8335;42.646;23.380;2024-03-22T10:28:01;5.25;;;3.65;;
8279;SDS011;8335;42.646;23.380;2024-03-22T10:30:28;4.65;;;4.03;;
8279;SDS011;8335;42.646;23.380;2024-03-22T10:32:54;4.88;;;3.60;;
8279;SDS011;8335;42.646;23.380;2024-03-22T10:35:21;5.20;;;3.67;;
8279;SDS011;8335;42.646;23.380;2024-03-22T10:37:48;4.05;;;3.65;;
8279;SDS011;8335;42.646;23.380;2024-03-22T10:40:18;4.80;;;3.92;;
8279;SDS011;8335;42.646;23.380;2024-03-22T10:42:45;4.55;;;3.92;;
8279;SDS011;8335;42.646;23.380;2024-03-22T10:45:12;5.45;;;3.30;;
8279;SDS011;8335;42.646;23.380;2024-03-22T10:47:38;4.75;;;3.60;;
8279;SDS011;8335;42.646;23.380;2024-03-22T10:50:06;6.35;;;3.45;;
8279;SDS011;8335;42.646;23.380;2024-03-22T10:52:33;9.20;;;3.65;;
8279;SDS011;8335;42.646;23.380;2024-03-22T10:55:04;5.97;;;3.40;;
8279;SDS011;8335;42.646;23.380;2024-03-22T10:57:34;4.93;;;3.50;;
8279;SDS011;8335;42.646;23.380;2024-03-22T11:00:03;5.63;;;3.53;;
8279;SDS011;8335;42.646;23.380;2024-03-22T11:02:35;7.40;;;3.08;;
8279;SDS011;8335;42.646;23.380;2024-03-22T11:05:02;4.18;;;3.00;;
8279;SDS011;8335;42.646;23.380;2024-03-22T11:07:28;5.15;;;3.40;;
8279;SDS011;8335;42.646;23.380;2024-03-22T11:09:56;4.43;;;3.25;;
8279;SDS011;8335;42.646;23.380;2024-03-22T11:12:23;7.55;;;3.63;;
8279;SDS011;8335;42.646;23.380;2024-03-22T11:14:53;4.68;;;3.05;;
8279;SDS011;8335;42.646;23.380;2024-03-22T11:17:19;6.00;;;3.40;;
8279;SDS011;8335;42.646;23.380;2024-03-22T11:19:48;13.30;;;4.00;;
8279;SDS011;8335;42.646;23.380;2024-03-22T11:22:13;7.32;;;3.88;;
8279;SDS011;8335;42.646;23.380;2024-03-22T11:24:41;5.65;;;3.85;;
8279;SDS011;8335;42.646;23.380;2024-03-22T11:27:06;6.15;;;3.72;;
8279;SDS011;8335;42.646;23.380;2024-03-22T11:29:35;5.05;;;3.67;;
8279;SDS011;8335;42.646;23.380;2024-03-22T11:32:05;4.43;;;3.17;;
8279;SDS011;8335;42.646;23.380;2024-03-22T11:34:33;6.20;;;3.65;;
8279;SDS011;8335;42.646;23.380;2024-03-22T11:37:00;4.55;;;3.88;;
8279;SDS011;8335;42.646;23.380;2024-03-22T11:39:26;6.05;;;3.67;;
8279;SDS011;8335;42.646;23.380;2024-03-22T11:41:52;6.18;;;3.83;;
8279;SDS011;8335;42.646;23.380;2024-03-22T11:44:19;6.60;;;4.03;;
8279;SDS011;8335;42.646;23.380;2024-03-22T11:46:46;4.47;;;3.38;;
8279;SDS011;8335;42.646;23.380;2024-03-22T11:49:14;4.82;;;3.40;;
8279;SDS011;8335;42.646;23.380;2024-03-22T11:51:39;4.38;;;3.42;;
8279;SDS011;8335;42.646;23.380;2024-03-22T11:54:06;5.07;;;3.72;;
8279;SDS011;8335;42.646;23.380;2024-03-22T11:56:34;5.07;;;3.50;;
8279;SDS011;8335;42.646;23.380;2024-03-22T11:59:01;5.80;;;3.15;;
8279;SDS011;8335;42.646;23.380;2024-03-22T12:01:28;3.95;;;3.25;;
8279;SDS011;8335;42.646;23.380;2024-03-22T12:03:55;6.67;;;3.57;;
8279;SDS011;8335;42.646;23.380;2024-03-22T12:06:22;6.57;;;3.30;;
8279;SDS011;8335;42.646;23.380;2024-03-22T12:08:49;4.50;;;3.07;;
8279;SDS011;8335;42.646;23.380;2024-03-22T12:11:16;6.23;;;3.70;;
8279;SDS011;8335;42.646;23.380;2024-03-22T12:13:42;4.90;;;3.70;;
8279;SDS011;8335;42.646;23.380;2024-03-22T12:16:08;6.90;;;3.80;;
8279;SDS011;8335;42.646;23.380;2024-03-22T12:18:35;3.80;;;3.13;;
8279;SDS011;8335;42.646;23.380;2024-03-22T12:21:00;6.40;;;3.47;;
8279;SDS011;8335;42.646;23.380;2024-03-22T12:23:28;6.67;;;3.53;;
8279;SDS011;8335;42.646;23.380;2024-03-22T12:25:54;5.17;;;3.60;;
8279;SDS011;8335;42.646;23.380;2024-03-22T12:28:21;5.43;;;3.70;;
8279;SDS011;8335;42.646;23.380;2024-03-22T12:30:47;7.30;;;3.67;;
8279;SDS011;8335;42.646;23.380;2024-03-22T12:33:14;5.00;;;3.60;;
8279;SDS011;8335;42.646;23.380;2024-03-22T12:35:40;5.27;;;3.53;;
8279;SDS011;8335;42.646;23.380;2024-03-22T12:38:07;6.67;;;3.30;;
8279;SDS011;8335;42.646;23.380;2024-03-22T12:40:36;4.00;;;3.20;;
8279;SDS011;8335;42.646;23.380;2024-03-22T12:43:03;5.73;;;3.60;;
8279;SDS011;8335;42.646;23.380;2024-03-22T12:45:29;5.90;;;3.50;;
8279;SDS011;8335;42.646;23.380;2024-03-22T12:47:56;5.20;;;3.50;;
8279;SDS011;8335;42.646;23.380;2024-03-22T12:50:22;6.20;;;3.60;;
8279;SDS011;8335;42.646;23.380;2024-03-22T12:52:48;4.63;;;3.30;;
8279;SDS011;8335;42.646;23.380;2024-03-22T12:55:14;7.07;;;3.53;;
8279;SDS011;8335;42.646;23.380;2024-03-22T12:57:42;3.83;;;3.13;;
8279;SDS011;8335;42.646;23.380;2024-03-22T13:00:08;4.80;;;3.40;;
8279;SDS011;8335;42.646;23.380;2024-03-22T13:02:40;13.40;;;3.70;;
8279;SDS011;8335;42.646;23.380;2024-03-22T13:05:05;12.07;;;3.70;;
8279;SDS011;8335;42.646;23.380;2024-03-22T13:07:33;5.53;;;3.57;;
8279;SDS011;8335;42.646;23.380;2024-03-22T13:09:59;10.00;;;3.30;;
8279;SDS011;8335;42.646;23.380;2024-03-22T13:12:26;5.33;;;3.37;;
8279;SDS011;8335;42.646;23.380;2024-03-22T13:14:53;6.73;;;3.33;;
8279;SDS011;8335;42.646;23.380;2024-03-22T13:17:20;7.97;;;3.37;;
8279;SDS011;8335;42.646;23.380;2024-03-22T13:19:46;20.63;;;3.97;;
8279;SDS011;8335;42.646;23.380;2024-03-22T13:22:12;7.63;;;4.00;;
8279;SDS011;8335;42.646;23.380;2024-03-22T13:24:39;5.93;;;3.20;;
8279;SDS011;8335;42.646;23.380;2024-03-22T13:27:06;7.50;;;3.70;;
8279;SDS011;8335;42.646;23.380;2024-03-22T13:29:33;5.47;;;3.50;;
8279;SDS011;8335;42.646;23.380;2024-03-22T13:32:01;6.90;;;3.23;;
8279;SDS011;8335;42.646;23.380;2024-03-22T13:34:26;7.27;;;3.53;;
8279;SDS011;8335;42.646;23.380;2024-03-22T13:36:53;4.63;;;3.40;;
8279;SDS011;8335;42.646;23.380;2024-03-22T13:39:19;4.37;;;3.53;;
8279;SDS011;8335;42.646;23.380;2024-03-22T13:41:46;9.33;;;4.27;;
8279;SDS011;8335;42.646;23.380;2024-03-22T13:44:12;6.77;;;3.57;;
8279;SDS011;8335;42.646;23.380;2024-03-22T13:46:39;7.37;;;4.00;;
8279;SDS011;8335;42.646;23.380;2024-03-22T13:49:12;5.23;;;3.50;;
8279;SDS011;8335;42.646;23.380;2024-03-22T13:51:42;9.03;;;3.70;;
8279;SDS011;8335;42.646;23.380;2024-03-22T13:54:07;7.87;;;3.60;;
8279;SDS011;8335;42.646;23.380;2024-03-22T13:56:34;5.90;;;3.73;;
8279;SDS011;8335;42.646;23.380;2024-03-22T13:59:00;9.00;;;3.83;;
8279;SDS011;8335;42.646;23.380;2024-03-22T14:01:27;6.10;;;3.37;;
8279;SDS011;8335;42.646;23.380;2024-03-22T14:03:53;8.60;;;4.10;;
8279;SDS011;8335;42.646;23.380;2024-03-22T14:06:21;10.40;;;3.77;;
8279;SDS011;8335;42.646;23.380;2024-03-22T14:08:46;4.73;;;3.57;;
8279;SDS011;8335;42.646;23.380;2024-03-22T14:11:13;4.57;;;3.47;;
8279;SDS011;8335;42.646;23.380;2024-03-22T14:13:39;5.50;;;3.70;;
8279;SDS011;8335;42.646;23.380;2024-03-22T14:16:05;5.63;;;3.60;;
8279;SDS011;8335;42.646;23.380;2024-03-22T14:18:32;12.67;;;4.53;;
8279;SDS011;8335;42.646;23.380;2024-03-22T14:21:00;6.27;;;3.60;;
8279;SDS011;8335;42.646;23.380;2024-03-22T14:23:27;7.00;;;3.47;;
8279;SDS011;8335;42.646;23.380;2024-03-22T14:25:54;7.47;;;3.43;;
8279;SDS011;8335;42.646;23.380;2024-03-22T14:28:20;8.10;;;3.50;;
8279;SDS011;8335;42.646;23.380;2024-03-22T14:30:48;3.60;;;3.10;;
8279;SDS011;8335;42.646;23.380;2024-03-22T14:33:14;7.57;;;3.40;;
8279;SDS011;8335;42.646;23.380;2024-03-22T14:35:42;4.97;;;3.50;;
8279;SDS011;8335;42.646;23.380;2024-03-22T14:38:07;4.13;;;3.30;;
8279;SDS011;8335;42.646;23.380;2024-03-22T14:40:36;6.47;;;3.57;;
8279;SDS011;8335;42.646;23.380;2024-03-22T14:43:03;6.70;;;3.50;;
8279;SDS011;8335;42.646;23.380;2024-03-22T14:45:30;7.73;;;3.57;;
8279;SDS011;8335;42.646;23.380;2024-03-22T14:47:56;11.60;;;3.80;;
8279;SDS011;8335;42.646;23.380;2024-03-22T14:50:23;8.13;;;3.77;;
8279;SDS011;8335;42.646;23.380;2024-03-22T14:52:49;7.20;;;3.30;;